SAWG Airport Information

Runway Information
Runway 7 Length 11644 ft width 148 ft
Elevation 61 ft Threshold 243 ft Heading 86
Runway 25 Length 11644 ft Width 148 ft
Elevation 51 ft Threshold 0 ft Heading 266
Airport Frequencies
Type APP Name APP/TWR Frequency 119.1 MHZ
Type ATIS Name ATIS Frequency 116.7 MHZ
Type RDO Name RDO Frequency 122.1 MHZ
Type TCA Name CON Frequency 124.7 MHZ
Airport Navaids
Type NDB Name Rio Gallegos Frequency 255 KHZ
Type VOR-DME Name Rio Gallegos Frequency 116700 KHZ
Type NDB Name Rio Gallegos Frequency 330 KHZ
Airport Weather Information & NOTAM
ADDS - METARS form results

(0811 UTC 22 May 2018)
 
METAR text: SAWG 220800Z 29008KT CAVOK 00/M03 Q1011
Conditions at: SAWG (RIO GALLEGOS ARP, AR) observed 0800 UTC 22 May 2018
Temperature: 0.0°C (32°F)
Dewpoint: -3.0°C (27°F) [RH = 80%]
Pressure (altimeter): 29.85 inches Hg (1011.0 mb)
Winds: from the WNW (290 degrees) at 9 MPH (8 knots; 4.2 m/s)
Visibility: 6 or more miles (10+ km)
Ceiling: ceiling and visibility are OK
Clouds: unknown
Weather: no significant weather observed at this time